sensor_id;sensor_type;location;lat;lon;timestamp;pressure;altitude;pressure_sealevel;temperature;humidity
60465;BME280;46314;52.392;9.758;2023-07-13T00:01:06;100609.19;;;20.71;58.81
60465;BME280;46314;52.392;9.758;2023-07-13T00:03:32;100614.44;;;21.38;57.41
60465;BME280;46314;52.392;9.758;2023-07-13T00:05:59;100616.28;;;21.27;56.85
60465;BME280;46314;52.392;9.758;2023-07-13T00:08:30;100612.34;;;21.55;56.58
60465;BME280;46314;52.392;9.758;2023-07-13T00:10:57;100612.03;;;21.60;57.03
60465;BME280;46314;52.392;9.758;2023-07-13T00:13:23;100618.00;;;22.08;55.30
60465;BME280;46314;52.392;9.758;2023-07-13T00:15:49;100621.47;;;21.98;55.13
60465;BME280;46314;52.392;9.758;2023-07-13T00:18:16;100615.47;;;21.04;58.58
60465;BME280;46314;52.392;9.758;2023-07-13T00:20:43;100622.47;;;20.71;58.42
60465;BME280;46314;52.392;9.758;2023-07-13T00:23:09;100611.91;;;20.48;59.74
60465;BME280;46314;52.392;9.758;2023-07-13T00:25:37;100624.28;;;20.43;60.77
60465;BME280;46314;52.392;9.758;2023-07-13T00:28:04;100629.00;;;20.20;61.42
60465;BME280;46314;52.392;9.758;2023-07-13T00:30:30;100632.38;;;20.84;60.97
60465;BME280;46314;52.392;9.758;2023-07-13T00:32:57;100625.31;;;20.16;61.98
60465;BME280;46314;52.392;9.758;2023-07-13T00:35:42;100622.16;;;19.85;63.54
60465;BME280;46314;52.392;9.758;2023-07-13T00:38:10;100626.81;;;20.68;61.27
60465;BME280;46314;52.392;9.758;2023-07-13T00:40:38;100619.56;;;20.67;60.78
60465;BME280;46314;52.392;9.758;2023-07-13T00:43:09;100615.31;;;20.57;61.74
60465;BME280;46314;52.392;9.758;2023-07-13T00:46:09;100613.00;;;21.02;60.58
60465;BME280;46314;52.392;9.758;2023-07-13T00:48:37;100621.78;;;21.20;58.71
60465;BME280;46314;52.392;9.758;2023-07-13T00:51:05;100613.28;;;20.74;60.91
60465;BME280;46314;52.392;9.758;2023-07-13T00:53:32;100617.38;;;20.99;60.44
60465;BME280;46314;52.392;9.758;2023-07-13T00:56:01;100622.59;;;20.58;62.23
60465;BME280;46314;52.392;9.758;2023-07-13T00:58:29;100617.09;;;20.46;63.42
60465;BME280;46314;52.392;9.758;2023-07-13T01:00:55;100616.69;;;20.64;62.46
60465;BME280;46314;52.392;9.758;2023-07-13T01:03:22;100610.78;;;20.92;62.15
60465;BME280;46314;52.392;9.758;2023-07-13T01:05:49;100613.91;;;20.28;64.12
60465;BME280;46314;52.392;9.758;2023-07-13T01:08:16;100618.56;;;20.59;63.15
60465;BME280;46314;52.392;9.758;2023-07-13T01:10:51;100612.00;;;19.65;66.23
60465;BME280;46314;52.392;9.758;2023-07-13T01:13:19;100605.38;;;19.57;67.78
60465;BME280;46314;52.392;9.758;2023-07-13T01:15:47;100609.66;;;20.57;64.21
60465;BME280;46314;52.392;9.758;2023-07-13T01:18:16;100608.16;;;19.73;66.45
60465;BME280;46314;52.392;9.758;2023-07-13T01:20:51;100612.31;;;19.76;66.23
60465;BME280;46314;52.392;9.758;2023-07-13T01:23:17;100609.66;;;19.83;66.71
60465;BME280;46314;52.392;9.758;2023-07-13T01:25:44;100610.91;;;19.54;66.62
60465;BME280;46314;52.392;9.758;2023-07-13T01:28:11;100614.41;;;20.34;64.40
60465;BME280;46314;52.392;9.758;2023-07-13T01:30:38;100615.88;;;20.28;63.61
60465;BME280;46314;52.392;9.758;2023-07-13T01:33:06;100604.22;;;19.74;65.77
60465;BME280;46314;52.392;9.758;2023-07-13T01:35:32;100609.59;;;20.34;64.33
60465;BME280;46314;52.392;9.758;2023-07-13T01:38:00;100609.00;;;19.90;64.92
60465;BME280;46314;52.392;9.758;2023-07-13T01:40:27;100607.44;;;20.47;62.77
60465;BME280;46314;52.392;9.758;2023-07-13T01:42:53;100608.59;;;20.07;63.11
60465;BME280;46314;52.392;9.758;2023-07-13T01:45:20;100609.44;;;20.47;62.60
60465;BME280;46314;52.392;9.758;2023-07-13T01:47:48;100612.66;;;20.65;61.63
60465;BME280;46314;52.392;9.758;2023-07-13T01:50:15;100615.22;;;20.93;61.12
60465;BME280;46314;52.392;9.758;2023-07-13T01:52:42;100621.91;;;21.73;58.04
60465;BME280;46314;52.392;9.758;2023-07-13T01:55:09;100618.84;;;20.35;60.23
60465;BME280;46314;52.392;9.758;2023-07-13T01:57:36;100620.50;;;20.36;59.66
60465;BME280;46314;52.392;9.758;2023-07-13T02:00:04;100619.19;;;20.88;60.41
60465;BME280;46314;52.392;9.758;2023-07-13T02:02:31;100615.56;;;20.68;59.86
60465;BME280;46314;52.392;9.758;2023-07-13T02:04:58;100625.03;;;21.45;57.98
60465;BME280;46314;52.392;9.758;2023-07-13T02:07:24;100626.28;;;20.43;61.40
60465;BME280;46314;52.392;9.758;2023-07-13T02:09:51;100632.97;;;19.83;62.47
60465;BME280;46314;52.392;9.758;2023-07-13T02:12:19;100633.53;;;20.24;62.39
60465;BME280;46314;52.392;9.758;2023-07-13T02:14:45;100633.34;;;20.53;61.94
60465;BME280;46314;52.392;9.758;2023-07-13T02:17:12;100636.41;;;20.64;59.52
60465;BME280;46314;52.392;9.758;2023-07-13T02:19:39;100634.41;;;20.64;59.78
60465;BME280;46314;52.392;9.758;2023-07-13T02:22:05;100646.63;;;20.72;59.71
60465;BME280;46314;52.392;9.758;2023-07-13T02:24:32;100644.97;;;21.10;58.13
60465;BME280;46314;52.392;9.758;2023-07-13T02:26:58;100637.47;;;20.59;60.21
60465;BME280;46314;52.392;9.758;2023-07-13T02:29:26;100636.88;;;19.63;62.74
60465;BME280;46314;52.392;9.758;2023-07-13T02:31:53;100631.19;;;19.75;62.38
60465;BME280;46314;52.392;9.758;2023-07-13T02:34:19;100637.63;;;19.44;63.61
60465;BME280;46314;52.392;9.758;2023-07-13T02:36:46;100634.91;;;20.15;61.79
60465;BME280;46314;52.392;9.758;2023-07-13T02:39:13;100642.22;;;19.84;62.85
60465;BME280;46314;52.392;9.758;2023-07-13T02:41:40;100641.25;;;20.47;61.02
60465;BME280;46314;52.392;9.758;2023-07-13T02:44:07;100640.66;;;20.57;59.44
60465;BME280;46314;52.392;9.758;2023-07-13T02:46:36;100644.09;;;20.67;59.18
60465;BME280;46314;52.392;9.758;2023-07-13T02:49:03;100641.88;;;20.37;60.24
60465;BME280;46314;52.392;9.758;2023-07-13T02:51:31;100638.47;;;20.67;58.45
60465;BME280;46314;52.392;9.758;2023-07-13T02:53:57;100638.56;;;20.70;58.20
60465;BME280;46314;52.392;9.758;2023-07-13T02:56:26;100641.69;;;19.30;62.59
60465;BME280;46314;52.392;9.758;2023-07-13T02:58:53;100632.78;;;19.44;62.05
60465;BME280;46314;52.392;9.758;2023-07-13T03:01:20;100640.50;;;19.16;63.13
60465;BME280;46314;52.392;9.758;2023-07-13T03:03:49;100635.25;;;19.94;61.46
60465;BME280;46314;52.392;9.758;2023-07-13T03:06:16;100641.41;;;19.67;61.56
60465;BME280;46314;52.392;9.758;2023-07-13T03:08:43;100647.78;;;19.80;61.22
60465;BME280;46314;52.392;9.758;2023-07-13T03:11:12;100648.47;;;20.45;59.60
60465;BME280;46314;52.392;9.758;2023-07-13T03:13:40;100648.31;;;20.02;60.13
60465;BME280;46314;52.392;9.758;2023-07-13T03:16:07;100650.66;;;20.71;58.01
60465;BME280;46314;52.392;9.758;2023-07-13T03:18:35;100648.69;;;20.00;61.02
60465;BME280;46314;52.392;9.758;2023-07-13T03:21:04;100644.56;;;19.98;59.91
60465;BME280;46314;52.392;9.758;2023-07-13T03:23:31;100653.13;;;19.85;59.80
60465;BME280;46314;52.392;9.758;2023-07-13T03:26:03;100640.13;;;19.17;61.85
60465;BME280;46314;52.392;9.758;2023-07-13T03:28:29;100639.03;;;19.22;61.71
60465;BME280;46314;52.392;9.758;2023-07-13T03:31:00;100638.31;;;19.73;61.41
60465;BME280;46314;52.392;9.758;2023-07-13T03:33:27;100638.19;;;20.36;59.41
60465;BME280;46314;52.392;9.758;2023-07-13T03:35:53;100637.38;;;20.16;58.91
60465;BME280;46314;52.392;9.758;2023-07-13T03:38:21;100640.63;;;20.73;57.46
60465;BME280;46314;52.392;9.758;2023-07-13T03:40:48;100636.59;;;20.94;56.26
60465;BME280;46314;52.392;9.758;2023-07-13T03:43:14;100634.72;;;20.43;58.17
60465;BME280;46314;52.392;9.758;2023-07-13T03:45:42;100647.66;;;19.61;60.13
60465;BME280;46314;52.392;9.758;2023-07-13T03:48:08;100640.34;;;20.23;58.55
60465;BME280;46314;52.392;9.758;2023-07-13T03:50:35;100643.06;;;20.75;57.03
60465;BME280;46314;52.392;9.758;2023-07-13T03:53:01;100642.91;;;19.77;59.68
60465;BME280;46314;52.392;9.758;2023-07-13T03:55:29;100641.59;;;19.27;60.28
60465;BME280;46314;52.392;9.758;2023-07-13T03:57:59;100656.09;;;20.09;58.33
60465;BME280;46314;52.392;9.758;2023-07-13T04:00:26;100651.03;;;19.98;58.45
60465;BME280;46314;52.392;9.758;2023-07-13T04:02:53;100656.16;;;20.64;57.27
60465;BME280;46314;52.392;9.758;2023-07-13T04:05:19;100658.75;;;19.70;59.13
60465;BME280;46314;52.392;9.758;2023-07-13T04:07:46;100668.66;;;20.31;57.97
60465;BME280;46314;52.392;9.758;2023-07-13T04:10:12;100659.69;;;20.80;56.30
60465;BME280;46314;52.392;9.758;2023-07-13T04:12:40;100670.31;;;20.87;55.43
60465;BME280;46314;52.392;9.758;2023-07-13T04:15:08;100662.38;;;20.73;56.23
60465;BME280;46314;52.392;9.758;2023-07-13T04:17:34;100668.22;;;19.93;60.03
60465;BME280;46314;52.392;9.758;2023-07-13T04:20:01;100660.84;;;20.59;57.59
60465;BME280;46314;52.392;9.758;2023-07-13T04:22:28;100667.41;;;19.77;59.02
60465;BME280;46314;52.392;9.758;2023-07-13T04:24:54;100668.50;;;20.23;60.38
60465;BME280;46314;52.392;9.758;2023-07-13T04:27:21;100676.75;;;20.68;57.30
60465;BME280;46314;52.392;9.758;2023-07-13T04:29:52;100672.63;;;20.46;58.40
60465;BME280;46314;52.392;9.758;2023-07-13T04:32:18;100675.34;;;20.77;57.54
60465;BME280;46314;52.392;9.758;2023-07-13T04:34:45;100672.91;;;20.76;57.25
60465;BME280;46314;52.392;9.758;2023-07-13T04:37:12;100674.91;;;20.04;59.08
60465;BME280;46314;52.392;9.758;2023-07-13T04:39:38;100674.53;;;20.06;59.23
60465;BME280;46314;52.392;9.758;2023-07-13T04:42:05;100678.84;;;20.00;58.97
60465;BME280;46314;52.392;9.758;2023-07-13T04:44:32;100670.09;;;20.05;58.93
60465;BME280;46314;52.392;9.758;2023-07-13T04:47:00;100677.16;;;20.15;59.32
60465;BME280;46314;52.392;9.758;2023-07-13T04:49:26;100682.31;;;20.84;57.92
60465;BME280;46314;52.392;9.758;2023-07-13T04:51:53;100681.94;;;20.30;58.50
60465;BME280;46314;52.392;9.758;2023-07-13T04:54:19;100676.22;;;19.75;60.74
60465;BME280;46314;52.392;9.758;2023-07-13T04:56:45;100681.16;;;20.85;58.24
60465;BME280;46314;52.392;9.758;2023-07-13T04:59:12;100686.63;;;20.42;57.53
60465;BME280;46314;52.392;9.758;2023-07-13T05:01:38;100681.94;;;20.30;59.12
60465;BME280;46314;52.392;9.758;2023-07-13T05:04:06;100682.53;;;20.94;56.81
60465;BME280;46314;52.392;9.758;2023-07-13T05:06:33;100688.53;;;21.12;56.19
60465;BME280;46314;52.392;9.758;2023-07-13T05:08:59;100695.25;;;20.49;58.50
60465;BME280;46314;52.392;9.758;2023-07-13T05:11:26;100696.09;;;21.28;56.58
60465;BME280;46314;52.392;9.758;2023-07-13T05:13:52;100694.44;;;21.46;55.52
60465;BME280;46314;52.392;9.758;2023-07-13T05:16:19;100696.00;;;21.67;52.84
60465;BME280;46314;52.392;9.758;2023-07-13T05:18:45;100702.78;;;21.85;53.49
60465;BME280;46314;52.392;9.758;2023-07-13T05:21:13;100702.69;;;21.35;55.02
60465;BME280;46314;52.392;9.758;2023-07-13T05:23:40;100702.66;;;22.01;53.84
60465;BME280;46314;52.392;9.758;2023-07-13T05:26:07;100704.28;;;22.02;53.33
60465;BME280;46314;52.392;9.758;2023-07-13T05:28:36;100704.06;;;22.15;52.39
60465;BME280;46314;52.392;9.758;2023-07-13T05:31:03;100702.28;;;21.80;52.48
60465;BME280;46314;52.392;9.758;2023-07-13T05:33:29;100698.63;;;22.56;51.95
60465;BME280;46314;52.392;9.758;2023-07-13T05:35:56;100709.66;;;22.64;50.95
60465;BME280;46314;52.392;9.758;2023-07-13T05:38:24;100712.94;;;22.40;51.29
60465;BME280;46314;52.392;9.758;2023-07-13T05:40:50;100710.84;;;22.63;50.33
60465;BME280;46314;52.392;9.758;2023-07-13T05:43:17;100715.22;;;22.87;50.80
60465;BME280;46314;52.392;9.758;2023-07-13T05:45:44;100722.53;;;23.22;48.76
60465;BME280;46314;52.392;9.758;2023-07-13T05:48:10;100715.91;;;23.45;48.59
60465;BME280;46314;52.392;9.758;2023-07-13T05:50:37;100726.28;;;22.39;50.62
60465;BME280;46314;52.392;9.758;2023-07-13T05:53:03;100720.97;;;22.95;49.44
60465;BME280;46314;52.392;9.758;2023-07-13T05:55:32;100723.50;;;23.75;48.37
60465;BME280;46314;52.392;9.758;2023-07-13T05:57:59;100715.88;;;23.41;48.46
60465;BME280;46314;52.392;9.758;2023-07-13T06:00:26;100714.50;;;24.69;45.50
60465;BME280;46314;52.392;9.758;2023-07-13T06:02:53;100724.88;;;23.92;46.76
60465;BME280;46314;52.392;9.758;2023-07-13T06:05:19;100730.69;;;26.32;41.55
60465;BME280;46314;52.392;9.758;2023-07-13T06:07:46;100727.88;;;25.96;41.82
60465;BME280;46314;52.392;9.758;2023-07-13T06:10:12;100732.47;;;29.13;36.66
60465;BME280;46314;52.392;9.758;2023-07-13T06:12:40;100732.31;;;32.06;31.80
60465;BME280;46314;52.392;9.758;2023-07-13T06:15:08;100742.53;;;35.41;27.70
60465;BME280;46314;52.392;9.758;2023-07-13T06:17:34;100737.75;;;36.37;25.39
60465;BME280;46314;52.392;9.758;2023-07-13T06:20:01;100741.22;;;36.14;25.22
60465;BME280;46314;52.392;9.758;2023-07-13T06:22:27;100732.84;;;32.17;30.11
60465;BME280;46314;52.392;9.758;2023-07-13T06:24:54;100720.13;;;25.93;40.21
60465;BME280;46314;52.392;9.758;2023-07-13T06:27:20;100731.13;;;26.16;41.06
60465;BME280;46314;52.392;9.758;2023-07-13T06:29:48;100738.94;;;30.50;32.63
60465;BME280;46314;52.392;9.758;2023-07-13T06:32:15;100752.19;;;31.24;32.08
60465;BME280;46314;52.392;9.758;2023-07-13T06:34:42;100739.19;;;30.35;32.30
60465;BME280;46314;52.392;9.758;2023-07-13T06:37:09;100739.41;;;32.47;30.04
60465;BME280;46314;52.392;9.758;2023-07-13T06:39:35;100747.91;;;29.50;33.79
60465;BME280;46314;52.392;9.758;2023-07-13T06:42:02;100735.16;;;26.40;39.35
60465;BME280;46314;52.392;9.758;2023-07-13T06:44:29;100740.03;;;25.86;40.33
60465;BME280;46314;52.392;9.758;2023-07-13T06:46:57;100740.03;;;25.79;40.78
60465;BME280;46314;52.392;9.758;2023-07-13T06:49:23;100757.88;;;26.69;40.13
60465;BME280;46314;52.392;9.758;2023-07-13T06:51:50;100740.38;;;25.52;40.80
60465;BME280;46314;52.392;9.758;2023-07-13T06:54:16;100749.75;;;25.81;40.12
60465;BME280;46314;52.392;9.758;2023-07-13T06:56:43;100751.59;;;25.16;41.65
60465;BME280;46314;52.392;9.758;2023-07-13T06:59:09;100752.22;;;26.04;41.64
60465;BME280;46314;52.392;9.758;2023-07-13T07:01:36;100748.56;;;25.93;40.95
60465;BME280;46314;52.392;9.758;2023-07-13T07:04:06;100755.06;;;26.37;40.48
60465;BME280;46314;52.392;9.758;2023-07-13T07:06:33;100752.63;;;26.46;39.87
60465;BME280;46314;52.392;9.758;2023-07-13T07:08:59;100750.19;;;26.44;39.98
60465;BME280;46314;52.392;9.758;2023-07-13T07:11:26;100755.47;;;26.10;40.53
60465;BME280;46314;52.392;9.758;2023-07-13T07:13:53;100756.97;;;25.43;41.96
60465;BME280;46314;52.392;9.758;2023-07-13T07:16:20;100749.34;;;23.70;45.59
60465;BME280;46314;52.392;9.758;2023-07-13T07:18:47;100748.56;;;25.93;41.41
60465;BME280;46314;52.392;9.758;2023-07-13T07:21:15;100748.94;;;25.70;40.99
60465;BME280;46314;52.392;9.758;2023-07-13T07:23:42;100755.72;;;25.26;42.10
60465;BME280;46314;52.392;9.758;2023-07-13T07:26:09;100745.81;;;24.91;43.28
60465;BME280;46314;52.392;9.758;2023-07-13T07:28:36;100762.91;;;24.43;44.14
60465;BME280;46314;52.392;9.758;2023-07-13T07:31:05;100760.03;;;24.35;45.08
60465;BME280;46314;52.392;9.758;2023-07-13T07:33:35;100760.78;;;23.80;45.02
60465;BME280;46314;52.392;9.758;2023-07-13T07:36:02;100762.22;;;23.63;46.00
60465;BME280;46314;52.392;9.758;2023-07-13T07:38:32;100760.09;;;23.91;45.96
60465;BME280;46314;52.392;9.758;2023-07-13T07:41:02;100764.34;;;23.74;45.57
60465;BME280;46314;52.392;9.758;2023-07-13T07:43:32;100756.44;;;23.94;44.89
60465;BME280;46314;52.392;9.758;2023-07-13T07:45:58;100757.09;;;24.21;44.48
60465;BME280;46314;52.392;9.758;2023-07-13T07:48:28;100761.91;;;24.13;46.13
60465;BME280;46314;52.392;9.758;2023-07-13T07:50:55;100766.53;;;24.39;44.47
60465;BME280;46314;52.392;9.758;2023-07-13T07:53:21;100762.25;;;24.56;43.78
60465;BME280;46314;52.392;9.758;2023-07-13T07:55:49;100764.22;;;24.52;43.95
60465;BME280;46314;52.392;9.758;2023-07-13T07:58:18;100760.63;;;24.07;45.21
60465;BME280;46314;52.392;9.758;2023-07-13T08:00:48;100762.38;;;24.23;44.75
60465;BME280;46314;52.392;9.758;2023-07-13T08:03:17;100766.31;;;24.59;44.12
60465;BME280;46314;52.392;9.758;2023-07-13T08:05:46;100769.94;;;24.56;44.65
60465;BME280;46314;52.392;9.758;2023-07-13T08:08:34;100774.03;;;24.66;43.60
60465;BME280;46314;52.392;9.758;2023-07-13T08:11:05;100765.34;;;25.03;42.42
60465;BME280;46314;52.392;9.758;2023-07-13T08:13:52;100766.75;;;24.13;43.84
60465;BME280;46314;52.392;9.758;2023-07-13T08:16:21;100765.03;;;24.53;43.55
60465;BME280;46314;52.392;9.758;2023-07-13T08:18:47;100755.09;;;24.81;43.07
60465;BME280;46314;52.392;9.758;2023-07-13T08:21:14;100759.28;;;22.62;47.37
60465;BME280;46314;52.392;9.758;2023-07-13T08:23:41;100759.00;;;24.54;45.06
60465;BME280;46314;52.392;9.758;2023-07-13T08:26:09;100766.53;;;25.02;43.37
60465;BME280;46314;52.392;9.758;2023-07-13T08:28:35;100762.97;;;25.16;42.47
60465;BME280;46314;52.392;9.758;2023-07-13T08:31:02;100768.41;;;23.05;47.92
60465;BME280;46314;52.392;9.758;2023-07-13T08:33:28;100758.19;;;24.06;46.70
60465;BME280;46314;52.392;9.758;2023-07-13T08:35:55;100765.88;;;24.05;46.18
60465;BME280;46314;52.392;9.758;2023-07-13T08:38:21;100771.03;;;24.44;44.83
60465;BME280;46314;52.392;9.758;2023-07-13T08:40:51;100777.22;;;24.57;44.64
60465;BME280;46314;52.392;9.758;2023-07-13T08:43:23;100776.91;;;24.69;43.58
60465;BME280;46314;52.392;9.758;2023-07-13T08:45:54;100766.13;;;23.89;45.62
60465;BME280;46314;52.392;9.758;2023-07-13T08:48:26;100768.31;;;24.55;45.59
60465;BME280;46314;52.392;9.758;2023-07-13T08:50:57;100774.41;;;25.34;43.48
60465;BME280;46314;52.392;9.758;2023-07-13T08:53:33;100766.63;;;25.24;43.52
60465;BME280;46314;52.392;9.758;2023-07-13T08:56:01;100769.31;;;24.88;44.39
60465;BME280;46314;52.392;9.758;2023-07-13T08:58:30;100768.53;;;24.94;44.04
60465;BME280;46314;52.392;9.758;2023-07-13T09:01:02;100766.41;;;24.73;44.53
60465;BME280;46314;52.392;9.758;2023-07-13T09:03:35;100761.78;;;25.24;42.62
60465;BME280;46314;52.392;9.758;2023-07-13T09:06:03;100760.38;;;24.86;43.81
60465;BME280;46314;52.392;9.758;2023-07-13T09:08:38;100769.69;;;24.83;44.33
60465;BME280;46314;52.392;9.758;2023-07-13T09:11:17;100783.41;;;25.54;43.19
60465;BME280;46314;52.392;9.758;2023-07-13T09:13:57;100772.22;;;25.02;43.44
60465;BME280;46314;52.392;9.758;2023-07-13T09:16:27;100774.91;;;24.73;44.53
60465;BME280;46314;52.392;9.758;2023-07-13T09:18:56;100779.69;;;24.62;44.70
60465;BME280;46314;52.392;9.758;2023-07-13T09:21:29;100779.69;;;24.62;45.26
60465;BME280;46314;52.392;9.758;2023-07-13T09:24:01;100783.94;;;24.93;44.33
60465;BME280;46314;52.392;9.758;2023-07-13T09:26:29;100789.16;;;24.84;45.98
60465;BME280;46314;52.392;9.758;2023-07-13T09:28:59;100791.22;;;24.87;44.31
60465;BME280;46314;52.392;9.758;2023-07-13T09:31:33;100774.72;;;25.14;44.27
60465;BME280;46314;52.392;9.758;2023-07-13T09:34:00;100781.38;;;25.51;43.61
60465;BME280;46314;52.392;9.758;2023-07-13T09:36:29;100773.72;;;25.87;42.22
60465;BME280;46314;52.392;9.758;2023-07-13T09:39:01;100768.88;;;26.45;41.07
60465;BME280;46314;52.392;9.758;2023-07-13T09:41:35;100781.06;;;26.10;42.74
60465;BME280;46314;52.392;9.758;2023-07-13T09:44:10;100768.38;;;25.54;43.95
60465;BME280;46314;52.392;9.758;2023-07-13T09:46:37;100780.13;;;25.56;43.67
60465;BME280;46314;52.392;9.758;2023-07-13T09:49:04;100774.06;;;25.54;43.06
60465;BME280;46314;52.392;9.758;2023-07-13T09:51:30;100781.75;;;25.46;43.21
60465;BME280;46314;52.392;9.758;2023-07-13T09:53:57;100777.06;;;24.94;43.53
60465;BME280;46314;52.392;9.758;2023-07-13T09:56:26;100779.56;;;25.07;45.07
60465;BME280;46314;52.392;9.758;2023-07-13T09:58:53;100773.13;;;25.21;42.28
60465;BME280;46314;52.392;9.758;2023-07-13T10:01:33;100783.69;;;25.27;43.31
60465;BME280;46314;52.392;9.758;2023-07-13T10:04:00;100776.81;;;25.25;43.76
60465;BME280;46314;52.392;9.758;2023-07-13T10:06:26;100769.59;;;25.49;41.89
60465;BME280;46314;52.392;9.758;2023-07-13T10:08:56;100777.75;;;25.61;42.52
60465;BME280;46314;52.392;9.758;2023-07-13T10:11:24;100784.63;;;25.57;42.92
60465;BME280;46314;52.392;9.758;2023-07-13T10:13:53;100779.19;;;25.19;44.00
60465;BME280;46314;52.392;9.758;2023-07-13T10:16:20;100781.06;;;24.90;43.55
60465;BME280;46314;52.392;9.758;2023-07-13T10:18:54;100785.75;;;25.30;42.90
60465;BME280;46314;52.392;9.758;2023-07-13T10:21:23;100769.28;;;24.84;42.49
60465;BME280;46314;52.392;9.758;2023-07-13T10:24:06;100771.66;;;25.70;42.02
60465;BME280;46314;52.392;9.758;2023-07-13T10:26:42;100774.88;;;25.54;41.05
60465;BME280;46314;52.392;9.758;2023-07-13T10:29:14;100772.84;;;25.55;42.24
60465;BME280;46314;52.392;9.758;2023-07-13T10:31:44;100771.59;;;25.52;41.90
60465;BME280;46314;52.392;9.758;2023-07-13T10:34:13;100783.91;;;25.99;40.81
60465;BME280;46314;52.392;9.758;2023-07-13T10:36:41;100788.38;;;26.18;40.80
60465;BME280;46314;52.392;9.758;2023-07-13T10:39:14;100781.03;;;25.92;41.63
60465;BME280;46314;52.392;9.758;2023-07-13T10:41:42;100780.13;;;25.52;41.50
60465;BME280;46314;52.392;9.758;2023-07-13T10:44:18;100777.81;;;25.94;40.58
60465;BME280;46314;52.392;9.758;2023-07-13T10:46:46;100788.28;;;25.61;41.55
60465;BME280;46314;52.392;9.758;2023-07-13T10:49:14;100782.94;;;25.45;40.68
60465;BME280;46314;52.392;9.758;2023-07-13T10:51:42;100773.81;;;24.96;42.21
60465;BME280;46314;52.392;9.758;2023-07-13T10:54:16;100776.91;;;25.68;40.01
60465;BME280;46314;52.392;9.758;2023-07-13T10:56:46;100783.44;;;25.72;41.25
60465;BME280;46314;52.392;9.758;2023-07-13T10:59:18;100773.50;;;25.12;41.38
60465;BME280;46314;52.392;9.758;2023-07-13T11:01:54;100783.53;;;24.91;40.48
60465;BME280;46314;52.392;9.758;2023-07-13T11:04:23;100785.34;;;25.28;40.91
60465;BME280;46314;52.392;9.758;2023-07-13T11:06:52;100780.66;;;26.01;41.47
60465;BME280;46314;52.392;9.758;2023-07-13T11:09:34;100787.59;;;26.14;39.49
60465;BME280;46314;52.392;9.758;2023-07-13T11:12:06;100786.34;;;26.01;39.94
60465;BME280;46314;52.392;9.758;2023-07-13T11:14:36;100788.66;;;25.52;40.83
60465;BME280;46314;52.392;9.758;2023-07-13T11:17:23;100785.34;;;25.28;42.13
60465;BME280;46314;52.392;9.758;2023-07-13T11:19:52;100780.09;;;25.41;41.37
60465;BME280;46314;52.392;9.758;2023-07-13T11:22:24;100789.13;;;25.72;40.96
60465;BME280;46314;52.392;9.758;2023-07-13T11:24:56;100786.50;;;25.24;43.31
60465;BME280;46314;52.392;9.758;2023-07-13T11:27:37;100792.25;;;25.35;44.74
60465;BME280;46314;52.392;9.758;2023-07-13T11:30:31;100785.41;;;25.46;42.64
60465;BME280;46314;52.392;9.758;2023-07-13T11:33:11;100785.75;;;25.30;42.18
60465;BME280;46314;52.392;9.758;2023-07-13T11:35:45;100774.50;;;25.66;41.84
60465;BME280;46314;52.392;9.758;2023-07-13T11:38:16;100775.38;;;26.06;41.47
60465;BME280;46314;52.392;9.758;2023-07-13T11:40:44;100770.47;;;25.89;41.82
60465;BME280;46314;52.392;9.758;2023-07-13T11:43:17;100773.31;;;26.50;41.60
60465;BME280;46314;52.392;9.758;2023-07-13T11:45:44;100762.34;;;26.56;40.11
60465;BME280;46314;52.392;9.758;2023-07-13T11:48:19;100774.97;;;26.19;39.48
60465;BME280;46314;52.392;9.758;2023-07-13T11:50:51;100763.19;;;26.56;39.80
60465;BME280;46314;52.392;9.758;2023-07-13T11:53:19;100772.16;;;26.37;40.27
60465;BME280;46314;52.392;9.758;2023-07-13T11:55:47;100786.63;;;27.11;38.56
60465;BME280;46314;52.392;9.758;2023-07-13T11:58:17;100763.53;;;26.83;37.14
60465;BME280;46314;52.392;9.758;2023-07-13T12:00:46;100761.38;;;27.16;38.68
60465;BME280;46314;52.392;9.758;2023-07-13T12:03:18;100762.63;;;27.12;37.53
60465;BME280;46314;52.392;9.758;2023-07-13T12:05:58;100758.28;;;26.57;38.83
60465;BME280;46314;52.392;9.758;2023-07-13T12:08:25;100759.00;;;27.00;38.99
60465;BME280;46314;52.392;9.758;2023-07-13T12:10:59;100765.00;;;27.28;37.03
60465;BME280;46314;52.392;9.758;2023-07-13T12:13:27;100770.50;;;27.67;35.59
60465;BME280;46314;52.392;9.758;2023-07-13T12:15:56;100772.16;;;27.61;35.54
60465;BME280;46314;52.392;9.758;2023-07-13T12:18:29;100768.69;;;27.14;35.67
60465;BME280;46314;52.392;9.758;2023-07-13T12:20:58;100770.59;;;27.53;36.16
60465;BME280;46314;52.392;9.758;2023-07-13T12:23:29;100773.69;;;26.88;36.88
60465;BME280;46314;52.392;9.758;2023-07-13T12:25:57;100771.97;;;27.09;37.51
60465;BME280;46314;52.392;9.758;2023-07-13T12:28:32;100782.31;;;27.66;35.54
60465;BME280;46314;52.392;9.758;2023-07-13T12:31:00;100777.16;;;27.43;35.53
60465;BME280;46314;52.392;9.758;2023-07-13T12:33:29;100770.69;;;27.24;36.68
60465;BME280;46314;52.392;9.758;2023-07-13T12:36:00;100765.63;;;26.40;36.93
60465;BME280;46314;52.392;9.758;2023-07-13T12:38:28;100779.38;;;25.77;38.71
60465;BME280;46314;52.392;9.758;2023-07-13T12:40:56;100772.44;;;24.68;40.10
60465;BME280;46314;52.392;9.758;2023-07-13T12:43:23;100775.13;;;25.20;40.36
60465;BME280;46314;52.392;9.758;2023-07-13T12:45:58;100768.03;;;26.74;37.97
60465;BME280;46314;52.392;9.758;2023-07-13T12:48:25;100769.47;;;27.25;36.99
60465;BME280;46314;52.392;9.758;2023-07-13T12:51:13;100771.97;;;27.16;36.44
60465;BME280;46314;52.392;9.758;2023-07-13T12:53:42;100783.91;;;26.50;37.42
60465;BME280;46314;52.392;9.758;2023-07-13T12:56:18;100780.25;;;26.20;37.15
60465;BME280;46314;52.392;9.758;2023-07-13T12:58:47;100779.84;;;26.04;37.72